createdAt,value
2022-08-04T00:02:38.977Z,60
2022-08-04T00:06:04.303Z,62
2022-08-04T00:09:29.609Z,61
2022-08-04T00:12:54.941Z,62
2022-08-04T00:16:20.239Z,61
2022-08-04T00:19:45.580Z,62
2022-08-04T00:23:10.899Z,64
2022-08-04T00:26:36.180Z,63
2022-08-04T00:30:01.483Z,61
2022-08-04T00:33:26.789Z,62
2022-08-04T00:36:52.113Z,62
2022-08-04T00:40:17.476Z,62
2022-08-04T00:43:42.781Z,63
2022-08-04T00:47:08.079Z,65
2022-08-04T00:50:33.373Z,65
2022-08-04T00:53:58.694Z,65
2022-08-04T00:57:30.001Z,64
2022-08-04T01:00:49.340Z,63
2022-08-04T01:04:14.657Z,64
2022-08-04T01:07:39.967Z,62
2022-08-04T01:11:05.283Z,61
2022-08-04T01:14:30.593Z,60
2022-08-04T01:17:55.917Z,60
2022-08-04T01:21:21.245Z,59
2022-08-04T01:24:46.560Z,59
2022-08-04T01:28:11.872Z,59
2022-08-04T01:31:37.206Z,60
2022-08-04T01:35:02.494Z,60
2022-08-04T01:38:27.841Z,61
2022-08-04T01:41:58.105Z,65
2022-08-04T01:45:18.465Z,60
2022-08-04T01:48:43.795Z,61
2022-08-04T01:52:09.100Z,64
2022-08-04T01:55:52.261Z,63
2022-08-04T01:58:59.740Z,61
2022-08-04T02:02:25.221Z,60
2022-08-04T02:06:02.732Z,62
2022-08-04T02:09:15.718Z,62
2022-08-04T02:12:41.064Z,62
2022-08-04T02:16:06.408Z,63
2022-08-04T02:19:31.793Z,62
2022-08-04T02:22:57.123Z,61
2022-08-04T02:26:23.064Z,61
2022-08-04T02:29:47.773Z,62
2022-08-04T02:33:13.081Z,61
2022-08-04T02:36:38.407Z,61
2022-08-04T02:40:03.728Z,63
2022-08-04T02:43:50.448Z,62
2022-08-04T02:46:54.391Z,61
2022-08-04T02:50:28.727Z,61
2022-08-04T02:53:45.008Z,62
2022-08-04T02:57:10.334Z,61
2022-08-04T03:00:35.674Z,61
2022-08-04T03:04:01.003Z,61
2022-08-04T03:07:26.336Z,62
2022-08-04T03:10:51.671Z,61
2022-08-04T03:14:16.982Z,61
2022-08-04T03:17:52.790Z,62
2022-08-04T03:21:07.594Z,62
2022-08-04T03:24:32.939Z,62
2022-08-04T03:27:58.292Z,61
2022-08-04T03:31:23.607Z,61
2022-08-04T03:34:48.939Z,61
2022-08-04T03:38:14.259Z,61
2022-08-04T03:41:51.174Z,62
2022-08-04T03:45:04.931Z,63
2022-08-04T03:48:30.270Z,63
2022-08-04T03:51:55.615Z,63
2022-08-04T03:55:20.976Z,62
2022-08-04T03:58:46.293Z,64
2022-08-04T04:02:11.718Z,64
2022-08-04T04:05:41.069Z,65
2022-08-04T04:09:02.302Z,63
2022-08-04T04:12:27.662Z,64
2022-08-04T04:15:53.695Z,64
2022-08-04T04:19:19.010Z,64
2022-08-04T04:22:44.340Z,62
2022-08-04T04:26:09.691Z,61
2022-08-04T04:29:35.048Z,59
2022-08-04T04:33:00.352Z,60
2022-08-04T04:36:25.691Z,59
2022-08-04T04:39:51.030Z,60
2022-08-04T04:43:16.362Z,61
2022-08-04T04:46:41.677Z,61
2022-08-04T04:50:07.032Z,59
2022-08-04T04:53:32.356Z,59
2022-08-04T04:56:57.683Z,58
2022-08-04T05:00:23.016Z,57
2022-08-04T05:03:48.372Z,56
2022-08-04T05:07:13.716Z,55
2022-08-04T05:10:39.158Z,54
2022-08-04T05:14:33.685Z,54
2022-08-04T05:17:30.000Z,55
2022-08-04T05:20:55.327Z,54
2022-08-04T05:24:20.669Z,53
2022-08-04T05:27:46.001Z,54
2022-08-04T05:31:11.339Z,53
2022-08-04T05:34:36.702Z,53
2022-08-04T05:38:02.031Z,53
2022-08-04T05:41:32.196Z,53
2022-08-04T05:44:52.700Z,54
2022-08-04T05:48:18.027Z,53
2022-08-04T05:51:43.381Z,54
2022-08-04T05:55:08.763Z,53
2022-08-04T05:58:34.102Z,52
2022-08-04T06:01:59.498Z,52
2022-08-04T06:05:24.823Z,52
2022-08-04T06:08:50.126Z,52
2022-08-04T06:12:15.451Z,52
2022-08-04T06:15:44.421Z,52
2022-08-04T06:19:58.295Z,53
2022-08-04T06:22:31.451Z,52
2022-08-04T06:25:56.768Z,51
2022-08-04T06:29:22.097Z,51
2022-08-04T06:32:47.427Z,51
2022-08-04T06:36:12.737Z,50
2022-08-04T06:39:38.119Z,51
2022-08-04T06:43:03.605Z,50
2022-08-04T06:46:28.766Z,50
2022-08-04T06:49:55.300Z,49
2022-08-04T06:53:19.443Z,50
2022-08-04T06:56:44.759Z,49
2022-08-04T07:00:10.148Z,50
2022-08-04T07:03:35.493Z,50
2022-08-04T07:07:00.826Z,50
2022-08-04T07:10:26.234Z,51
2022-08-04T07:13:51.512Z,51
2022-08-04T07:17:16.813Z,50
2022-08-04T07:20:42.141Z,50
2022-08-04T07:24:07.447Z,51
2022-08-04T07:27:48.037Z,48
2022-08-04T07:30:58.062Z,48
2022-08-04T07:34:23.387Z,47
2022-08-04T07:37:48.698Z,46
2022-08-04T07:44:39.377Z,45
2022-08-04T07:48:05.981Z,44
2022-08-04T07:51:30.006Z,45
2022-08-04T07:54:55.328Z,42
2022-08-04T07:58:20.651Z,41
2022-08-04T08:01:45.976Z,42
2022-08-04T08:05:11.337Z,42
2022-08-04T08:08:36.662Z,45
2022-08-04T08:12:34.787Z,43
2022-08-04T08:15:27.320Z,42
2022-08-04T08:18:52.676Z,41
2022-08-04T08:22:17.984Z,42
2022-08-04T08:25:43.332Z,41
2022-08-04T08:29:08.672Z,41
2022-08-04T08:32:33.981Z,43
2022-08-04T08:35:59.329Z,40
2022-08-04T08:39:24.955Z,41
2022-08-04T08:42:49.985Z,42
2022-08-04T08:46:15.335Z,42
2022-08-04T08:50:01.442Z,43
2022-08-04T08:53:06.048Z,42
2022-08-04T08:56:31.841Z,41
2022-08-04T08:59:56.738Z,41
2022-08-04T09:03:22.051Z,41
2022-08-04T09:06:47.370Z,42
2022-08-04T09:10:12.729Z,42
2022-08-04T09:13:38.075Z,42
2022-08-04T09:17:03.369Z,42
2022-08-04T09:20:28.717Z,42
2022-08-04T09:23:54.054Z,41
2022-08-04T09:27:19.555Z,42
2022-08-04T09:30:44.781Z,41
2022-08-04T09:34:10.093Z,41
2022-08-04T09:37:45.563Z,41
2022-08-04T09:41:01.409Z,41
2022-08-04T09:44:42.455Z,41
2022-08-04T09:47:52.084Z,42
2022-08-04T09:51:17.403Z,42
2022-08-04T09:54:42.753Z,41
2022-08-04T09:58:08.086Z,41
2022-08-04T10:01:34.377Z,40
2022-08-04T10:04:59.717Z,40
2022-08-04T10:08:25.046Z,40
2022-08-04T10:11:54.662Z,40
2022-08-04T10:15:15.718Z,40
2022-08-04T10:18:41.099Z,41
2022-08-04T10:22:27.567Z,40
2022-08-04T10:25:37.750Z,40
2022-08-04T10:28:58.073Z,40
2022-08-04T10:32:23.480Z,38
2022-08-04T10:35:48.787Z,38
2022-08-04T10:39:42.507Z,40
2022-08-04T10:42:39.471Z,39
2022-08-04T10:46:04.816Z,39
2022-08-04T10:49:30.147Z,38
2022-08-04T10:52:55.482Z,38
2022-08-04T10:56:20.852Z,39
2022-08-04T10:59:46.645Z,39
2022-08-04T11:03:12.069Z,39
2022-08-04T11:06:37.314Z,39
2022-08-04T11:10:02.632Z,40
2022-08-04T11:13:30.515Z,38
2022-08-04T11:16:56.197Z,37
2022-08-04T11:20:36.946Z,38
2022-08-04T11:23:46.904Z,38
2022-08-04T11:27:12.242Z,37
2022-08-04T11:30:37.586Z,38
2022-08-04T11:34:02.913Z,40
2022-08-04T11:37:28.269Z,37
2022-08-04T11:40:55.740Z,38
2022-08-04T11:44:18.993Z,38
2022-08-04T11:47:44.408Z,36
2022-08-04T11:51:09.707Z,36
2022-08-04T11:54:35.100Z,37
2022-08-04T11:58:00.470Z,36
2022-08-04T12:01:25.773Z,38
2022-08-04T12:04:51.117Z,36
2022-08-04T12:08:16.453Z,36
2022-08-04T12:11:41.840Z,37
2022-08-04T12:15:07.173Z,39
2022-08-04T12:18:32.548Z,36
2022-08-04T12:21:57.900Z,39
2022-08-04T12:25:23.221Z,37
2022-08-04T12:32:14.016Z,36
2022-08-04T12:35:39.584Z,38
2022-08-04T12:39:07.779Z,37
2022-08-04T12:42:33.310Z,37
2022-08-04T12:45:59.041Z,36
2022-08-04T12:49:25.404Z,37
2022-08-04T12:53:01.357Z,36
2022-08-04T12:56:16.260Z,36
2022-08-04T12:59:41.705Z,36
2022-08-04T13:03:20.399Z,37
2022-08-04T13:06:45.803Z,36
2022-08-04T13:10:11.153Z,35
2022-08-04T13:13:36.566Z,35
2022-08-04T13:17:02.102Z,40
2022-08-04T13:20:27.525Z,36
2022-08-04T13:24:11.175Z,38
2022-08-04T13:27:18.496Z,37
2022-08-04T13:30:43.943Z,36
2022-08-04T13:34:18.783Z,36
2022-08-04T13:37:34.777Z,34
2022-08-04T13:41:00.130Z,37
2022-08-04T13:44:25.583Z,36
2022-08-04T13:47:51.053Z,35
2022-08-04T13:51:16.422Z,34
2022-08-04T13:54:42.539Z,35
2022-08-04T13:58:07.336Z,35
2022-08-04T14:01:35.392Z,35
2022-08-04T14:04:58.135Z,36
2022-08-04T14:08:23.480Z,35
2022-08-04T14:12:04.833Z,35
2022-08-04T14:15:14.386Z,33
2022-08-04T14:18:39.778Z,32
2022-08-04T14:22:05.164Z,34
2022-08-04T14:25:35.494Z,33
2022-08-04T14:29:00.097Z,34
2022-08-04T15:04:59.300Z,32
2022-08-04T15:08:24.641Z,35
2022-08-04T15:11:49.978Z,35
2022-08-04T15:15:35.747Z,35
2022-08-04T15:18:40.681Z,35
2022-08-04T15:22:06.012Z,35
2022-08-04T15:25:31.331Z,35
2022-08-04T15:28:56.680Z,34
2022-08-04T15:32:22.276Z,35
2022-08-04T15:35:47.363Z,34
2022-08-04T15:39:17.077Z,35
2022-08-04T15:42:42.350Z,34
2022-08-04T15:46:43.770Z,36
2022-08-04T15:49:33.053Z,34
2022-08-04T15:53:00.831Z,35
2022-08-04T15:56:23.726Z,35
2022-08-04T15:59:49.090Z,35
2022-08-04T16:03:14.527Z,34
2022-08-04T16:06:39.948Z,35
2022-08-04T16:10:05.280Z,35
2022-08-04T16:13:30.657Z,37
2022-08-04T16:16:56.591Z,36
2022-08-04T16:20:21.954Z,37
2022-08-04T16:23:56.181Z,37
2022-08-04T16:27:12.640Z,37
2022-08-04T16:30:37.985Z,37
2022-08-04T16:34:03.921Z,37
2022-08-04T16:37:28.722Z,37
2022-08-04T16:40:54.108Z,37
2022-08-04T16:44:36.430Z,36
2022-08-04T16:47:44.824Z,37
2022-08-04T16:51:10.282Z,37
2022-08-04T16:54:35.528Z,36
2022-08-04T16:58:00.871Z,36
2022-08-04T17:01:27.668Z,36
2022-08-04T17:05:01.101Z,37
2022-08-04T17:08:29.442Z,37
2022-08-04T17:11:42.254Z,36
2022-08-04T17:15:07.664Z,37
2022-08-04T17:18:33.010Z,40
2022-08-04T17:22:03.147Z,41
2022-08-04T17:25:49.109Z,39
2022-08-04T17:28:49.245Z,40
2022-08-04T17:32:14.620Z,39
2022-08-04T17:35:40.082Z,41
2022-08-04T17:39:05.536Z,40
2022-08-04T17:42:30.935Z,38
2022-08-04T17:45:56.700Z,40
2022-08-04T17:49:21.663Z,39
2022-08-04T17:52:47.063Z,43
2022-08-04T17:56:12.416Z,43
2022-08-04T17:59:52.452Z,40
2022-08-04T18:03:03.239Z,42
2022-08-04T18:06:28.616Z,42
2022-08-04T18:09:58.760Z,43
2022-08-04T18:13:19.486Z,44
2022-08-04T18:16:44.899Z,45
2022-08-04T18:20:10.306Z,45
2022-08-04T18:23:40.583Z,45
2022-08-04T18:27:01.118Z,46
2022-08-04T18:30:39.160Z,43
2022-08-04T18:33:57.419Z,45
2022-08-04T18:37:32.154Z,44
2022-08-04T18:40:53.361Z,47
2022-08-04T18:44:10.518Z,47
2022-08-04T18:47:54.300Z,47
2022-08-04T18:51:23.380Z,48
2022-08-04T18:54:34.726Z,47
2022-08-04T18:58:01.325Z,55
2022-08-04T19:01:29.804Z,48
2022-08-04T19:04:52.320Z,50
2022-08-04T19:08:34.042Z,55
2022-08-04T19:11:54.847Z,49
2022-08-04T19:15:08.160Z,55
2022-08-04T19:18:36.440Z,53
2022-08-04T19:22:02.636Z,58
2022-08-04T19:26:02.400Z,50
2022-08-04T19:28:51.960Z,54
2022-08-04T19:32:17.308Z,53
2022-08-04T19:35:46.253Z,52
2022-08-04T19:39:09.320Z,55
2022-08-04T19:42:33.291Z,55
2022-08-04T19:45:58.693Z,53
2022-08-04T19:50:03.374Z,53
2022-08-04T19:52:51.826Z,55
2022-08-04T19:56:14.941Z,53
2022-08-04T19:59:48.138Z,54
2022-08-04T20:03:09.801Z,57
2022-08-04T20:06:31.075Z,56
2022-08-04T20:09:56.457Z,56
2022-08-04T20:13:21.830Z,52
2022-08-04T20:16:47.210Z,52
2022-08-04T20:20:12.678Z,51
2022-08-04T20:23:48.046Z,54
2022-08-04T20:27:04.963Z,51
2022-08-04T20:30:29.029Z,51
2022-08-04T20:33:55.122Z,51
2022-08-04T20:37:19.873Z,50
2022-08-04T20:40:45.278Z,51
2022-08-04T20:44:10.924Z,51
2022-08-04T20:47:36.186Z,50
2022-08-04T20:51:01.310Z,51
2022-08-04T20:54:27.158Z,50
2022-08-04T20:57:54.920Z,50
2022-08-04T21:01:17.344Z,55
2022-08-04T21:04:46.447Z,51
2022-08-04T21:08:07.928Z,51
2022-08-04T21:11:33.422Z,50
2022-08-04T21:14:58.599Z,50
2022-08-04T21:18:27.499Z,51
2022-08-04T21:21:50.078Z,50
2022-08-04T21:25:16.430Z,57
2022-08-04T21:28:39.864Z,54
2022-08-04T21:32:05.664Z,54
2022-08-04T21:35:37.202Z,56
2022-08-04T21:38:55.933Z,58
2022-08-04T21:42:26.627Z,62
2022-08-04T21:45:46.509Z,56
2022-08-04T21:49:11.827Z,55
2022-08-04T21:52:37.168Z,55
2022-08-04T21:56:05.362Z,60
2022-08-04T21:59:30.348Z,59
2022-08-04T22:02:53.803Z,60
2022-08-04T22:06:18.817Z,61
2022-08-04T22:09:45.620Z,58
2022-08-04T22:13:09.429Z,59
2022-08-04T22:16:34.762Z,59
2022-08-04T22:20:01.904Z,55
2022-08-04T22:23:25.566Z,55
2022-08-04T22:26:50.726Z,55
2022-08-04T22:30:16.977Z,57
2022-08-04T22:33:54.141Z,54
2022-08-04T22:37:07.555Z,54
2022-08-04T22:40:32.032Z,57
2022-08-04T22:43:57.353Z,56
2022-08-04T22:47:23.765Z,55
2022-08-04T22:50:47.996Z,54
2022-08-04T22:54:13.325Z,54
2022-08-04T22:57:43.221Z,56
2022-08-04T23:01:04.545Z,59
2022-08-04T23:04:29.289Z,55
2022-08-04T23:07:54.569Z,56
2022-08-04T23:11:19.898Z,59
2022-08-04T23:14:45.213Z,55
2022-08-04T23:18:10.505Z,55
2022-08-04T23:21:40.532Z,58
2022-08-04T23:25:01.164Z,58
2022-08-04T23:28:26.499Z,57
2022-08-04T23:31:59.009Z,55
2022-08-04T23:35:17.169Z,56
2022-08-04T23:38:42.489Z,55
2022-08-04T23:42:07.813Z,56
2022-08-04T23:46:04.733Z,63
2022-08-04T23:48:58.425Z,66
2022-08-04T23:52:23.775Z,60
2022-08-04T23:55:49.095Z,62
2022-08-04T23:59:17.633Z,61
